sensor_id;sensor_type;location;lat;lon;timestamp;P1;durP1;ratioP1;P2;durP2;ratioP2
73550;SDS011;61816;53.582;10.096;2023-10-08T00:02:15;23.55;;;5.50;;
73550;SDS011;61816;53.582;10.096;2023-10-08T00:04:48;26.75;;;4.97;;
73550;SDS011;61816;53.582;10.096;2023-10-08T00:07:16;29.80;;;6.90;;
73550;SDS011;61816;53.582;10.096;2023-10-08T00:09:50;29.88;;;6.15;;
73550;SDS011;61816;53.582;10.096;2023-10-08T00:12:19;33.58;;;8.07;;
73550;SDS011;61816;53.582;10.096;2023-10-08T00:14:45;29.23;;;6.47;;
73550;SDS011;61816;53.582;10.096;2023-10-08T00:17:15;28.85;;;6.80;;
73550;SDS011;61816;53.582;10.096;2023-10-08T00:19:42;32.22;;;7.15;;
73550;SDS011;61816;53.582;10.096;2023-10-08T00:22:09;32.35;;;7.32;;
73550;SDS011;61816;53.582;10.096;2023-10-08T00:24:39;26.25;;;7.78;;
73550;SDS011;61816;53.582;10.096;2023-10-08T00:27:07;34.22;;;7.20;;
73550;SDS011;61816;53.582;10.096;2023-10-08T00:29:33;29.27;;;8.43;;
73550;SDS011;61816;53.582;10.096;2023-10-08T00:31:59;41.35;;;9.77;;
73550;SDS011;61816;53.582;10.096;2023-10-08T00:34:24;23.33;;;8.35;;
73550;SDS011;61816;53.582;10.096;2023-10-08T00:36:52;39.78;;;8.07;;
73550;SDS011;61816;53.582;10.096;2023-10-08T00:39:17;35.58;;;8.30;;
73550;SDS011;61816;53.582;10.096;2023-10-08T00:41:59;37.80;;;8.40;;
73550;SDS011;61816;53.582;10.096;2023-10-08T00:44:24;33.97;;;7.93;;
73550;SDS011;61816;53.582;10.096;2023-10-08T00:46:57;32.28;;;8.00;;
73550;SDS011;61816;53.582;10.096;2023-10-08T00:49:27;44.38;;;8.65;;
73550;SDS011;61816;53.582;10.096;2023-10-08T00:52:09;26.40;;;7.28;;
73550;SDS011;61816;53.582;10.096;2023-10-08T00:54:37;34.38;;;7.32;;
73550;SDS011;61816;53.582;10.096;2023-10-08T00:57:22;36.60;;;8.75;;
73550;SDS011;61816;53.582;10.096;2023-10-08T00:59:50;39.15;;;8.38;;
73550;SDS011;61816;53.582;10.096;2023-10-08T01:02:20;31.23;;;7.55;;
73550;SDS011;61816;53.582;10.096;2023-10-08T01:04:53;40.15;;;7.95;;
73550;SDS011;61816;53.582;10.096;2023-10-08T01:07:22;32.28;;;7.25;;
73550;SDS011;61816;53.582;10.096;2023-10-08T01:09:49;34.53;;;7.00;;
73550;SDS011;61816;53.582;10.096;2023-10-08T01:12:24;33.00;;;7.00;;
73550;SDS011;61816;53.582;10.096;2023-10-08T01:14:58;26.55;;;5.93;;
73550;SDS011;61816;53.582;10.096;2023-10-08T01:17:41;24.55;;;5.72;;
73550;SDS011;61816;53.582;10.096;2023-10-08T01:20:11;33.42;;;6.38;;
73550;SDS011;61816;53.582;10.096;2023-10-08T01:23:00;28.08;;;6.90;;
73550;SDS011;61816;53.582;10.096;2023-10-08T01:25:35;20.20;;;5.20;;
73550;SDS011;61816;53.582;10.096;2023-10-08T01:28:01;25.58;;;6.15;;
73550;SDS011;61816;53.582;10.096;2023-10-08T01:30:33;35.33;;;6.20;;
73550;SDS011;61816;53.582;10.096;2023-10-08T01:33:00;22.33;;;4.78;;
73550;SDS011;61816;53.582;10.096;2023-10-08T01:35:30;33.15;;;6.10;;
73550;SDS011;61816;53.582;10.096;2023-10-08T01:37:57;33.60;;;5.80;;
73550;SDS011;61816;53.582;10.096;2023-10-08T01:40:24;23.38;;;4.15;;
73550;SDS011;61816;53.582;10.096;2023-10-08T01:42:50;25.95;;;4.90;;
73550;SDS011;61816;53.582;10.096;2023-10-08T01:45:16;25.70;;;5.70;;
73550;SDS011;61816;53.582;10.096;2023-10-08T01:47:43;28.30;;;4.88;;
73550;SDS011;61816;53.582;10.096;2023-10-08T01:50:09;28.35;;;5.65;;
73550;SDS011;61816;53.582;10.096;2023-10-08T01:52:49;29.83;;;5.72;;
73550;SDS011;61816;53.582;10.096;2023-10-08T01:55:16;30.23;;;5.15;;
73550;SDS011;61816;53.582;10.096;2023-10-08T01:57:44;26.35;;;4.45;;
73550;SDS011;61816;53.582;10.096;2023-10-08T02:00:10;35.13;;;4.35;;
73550;SDS011;61816;53.582;10.096;2023-10-08T02:02:36;23.10;;;4.22;;
73550;SDS011;61816;53.582;10.096;2023-10-08T02:05:01;17.55;;;4.07;;
73550;SDS011;61816;53.582;10.096;2023-10-08T02:07:29;23.20;;;4.68;;
73550;SDS011;61816;53.582;10.096;2023-10-08T02:09:55;19.80;;;4.20;;
73550;SDS011;61816;53.582;10.096;2023-10-08T02:12:22;28.40;;;5.18;;
73550;SDS011;61816;53.582;10.096;2023-10-08T02:14:48;23.35;;;3.50;;
73550;SDS011;61816;53.582;10.096;2023-10-08T02:17:14;23.02;;;3.75;;
73550;SDS011;61816;53.582;10.096;2023-10-08T02:19:39;28.80;;;4.72;;
73550;SDS011;61816;53.582;10.096;2023-10-08T02:22:06;17.85;;;3.88;;
73550;SDS011;61816;53.582;10.096;2023-10-08T02:24:34;23.08;;;3.60;;
73550;SDS011;61816;53.582;10.096;2023-10-08T02:27:01;25.70;;;4.25;;
73550;SDS011;61816;53.582;10.096;2023-10-08T02:29:28;20.85;;;3.58;;
73550;SDS011;61816;53.582;10.096;2023-10-08T02:31:55;22.38;;;4.03;;
73550;SDS011;61816;53.582;10.096;2023-10-08T02:34:21;22.70;;;3.75;;
73550;SDS011;61816;53.582;10.096;2023-10-08T02:36:46;13.77;;;3.53;;
73550;SDS011;61816;53.582;10.096;2023-10-08T02:39:12;29.40;;;3.72;;
73550;SDS011;61816;53.582;10.096;2023-10-08T02:41:46;27.00;;;4.05;;
73550;SDS011;61816;53.582;10.096;2023-10-08T02:44:12;23.40;;;3.67;;
73550;SDS011;61816;53.582;10.096;2023-10-08T02:46:42;15.68;;;3.58;;
73550;SDS011;61816;53.582;10.096;2023-10-08T02:49:12;16.40;;;3.40;;
73550;SDS011;61816;53.582;10.096;2023-10-08T02:51:52;18.92;;;3.72;;
73550;SDS011;61816;53.582;10.096;2023-10-08T02:56:48;17.00;;;3.05;;
73550;SDS011;61816;53.582;10.096;2023-10-08T02:59:19;20.92;;;3.75;;
73550;SDS011;61816;53.582;10.096;2023-10-08T03:01:48;24.02;;;3.78;;
73550;SDS011;61816;53.582;10.096;2023-10-08T03:04:21;16.33;;;3.80;;
73550;SDS011;61816;53.582;10.096;2023-10-08T03:06:48;27.42;;;3.42;;
73550;SDS011;61816;53.582;10.096;2023-10-08T03:09:18;13.65;;;2.47;;
73550;SDS011;61816;53.582;10.096;2023-10-08T03:11:49;20.90;;;3.33;;
73550;SDS011;61816;53.582;10.096;2023-10-08T03:14:16;10.57;;;2.10;;
73550;SDS011;61816;53.582;10.096;2023-10-08T03:16:49;23.38;;;4.28;;
73550;SDS011;61816;53.582;10.096;2023-10-08T03:19:20;27.52;;;4.10;;
73550;SDS011;61816;53.582;10.096;2023-10-08T03:21:47;24.88;;;4.07;;
73550;SDS011;61816;53.582;10.096;2023-10-08T03:24:17;15.93;;;2.72;;
73550;SDS011;61816;53.582;10.096;2023-10-08T03:26:58;22.90;;;3.22;;
73550;SDS011;61816;53.582;10.096;2023-10-08T03:29:48;17.33;;;2.60;;
73550;SDS011;61816;53.582;10.096;2023-10-08T03:32:14;9.55;;;2.75;;
73550;SDS011;61816;53.582;10.096;2023-10-08T03:34:48;14.40;;;2.95;;
73550;SDS011;61816;53.582;10.096;2023-10-08T03:37:16;20.52;;;3.30;;
73550;SDS011;61816;53.582;10.096;2023-10-08T03:39:49;21.60;;;2.72;;
73550;SDS011;61816;53.582;10.096;2023-10-08T03:42:58;13.45;;;3.00;;
73550;SDS011;61816;53.582;10.096;2023-10-08T03:45:24;14.55;;;2.72;;
73550;SDS011;61816;53.582;10.096;2023-10-08T03:48:08;11.85;;;2.80;;
73550;SDS011;61816;53.582;10.096;2023-10-08T03:50:40;19.13;;;2.55;;
73550;SDS011;61816;53.582;10.096;2023-10-08T03:53:09;13.55;;;2.30;;
73550;SDS011;61816;53.582;10.096;2023-10-08T03:55:40;24.48;;;2.75;;
73550;SDS011;61816;53.582;10.096;2023-10-08T03:58:08;13.23;;;3.08;;
73550;SDS011;61816;53.582;10.096;2023-10-08T04:00:53;13.20;;;3.35;;
73550;SDS011;61816;53.582;10.096;2023-10-08T04:03:33;10.52;;;2.40;;
73550;SDS011;61816;53.582;10.096;2023-10-08T04:06:19;16.15;;;2.08;;
73550;SDS011;61816;53.582;10.096;2023-10-08T04:08:48;12.82;;;2.58;;
73550;SDS011;61816;53.582;10.096;2023-10-08T04:11:32;20.40;;;2.78;;
73550;SDS011;61816;53.582;10.096;2023-10-08T04:14:03;16.60;;;2.63;;
73550;SDS011;61816;53.582;10.096;2023-10-08T04:16:29;16.65;;;3.15;;
73550;SDS011;61816;53.582;10.096;2023-10-08T04:18:56;17.90;;;3.67;;
73550;SDS011;61816;53.582;10.096;2023-10-08T04:21:22;18.25;;;2.83;;
73550;SDS011;61816;53.582;10.096;2023-10-08T04:23:53;18.15;;;3.00;;
73550;SDS011;61816;53.582;10.096;2023-10-08T04:26:19;13.57;;;2.70;;
73550;SDS011;61816;53.582;10.096;2023-10-08T04:28:55;18.25;;;3.90;;
73550;SDS011;61816;53.582;10.096;2023-10-08T04:31:27;17.05;;;2.95;;
73550;SDS011;61816;53.582;10.096;2023-10-08T04:34:03;10.75;;;2.08;;
73550;SDS011;61816;53.582;10.096;2023-10-08T04:36:45;25.08;;;2.85;;
73550;SDS011;61816;53.582;10.096;2023-10-08T04:39:14;16.27;;;2.53;;
73550;SDS011;61816;53.582;10.096;2023-10-08T04:41:46;17.60;;;3.28;;
73550;SDS011;61816;53.582;10.096;2023-10-08T04:44:13;18.30;;;2.50;;
73550;SDS011;61816;53.582;10.096;2023-10-08T04:46:40;12.88;;;2.20;;
73550;SDS011;61816;53.582;10.096;2023-10-08T04:49:12;16.65;;;2.53;;
73550;SDS011;61816;53.582;10.096;2023-10-08T04:54:22;10.10;;;2.15;;
73550;SDS011;61816;53.582;10.096;2023-10-08T04:56:49;14.52;;;3.17;;
73550;SDS011;61816;53.582;10.096;2023-10-08T04:59:14;17.55;;;2.65;;
73550;SDS011;61816;53.582;10.096;2023-10-08T05:01:39;15.15;;;2.78;;
73550;SDS011;61816;53.582;10.096;2023-10-08T05:04:34;21.35;;;2.42;;
73550;SDS011;61816;53.582;10.096;2023-10-08T05:07:12;14.30;;;2.60;;
73550;SDS011;61816;53.582;10.096;2023-10-08T05:09:47;13.07;;;2.33;;
73550;SDS011;61816;53.582;10.096;2023-10-08T05:12:29;14.95;;;2.40;;
73550;SDS011;61816;53.582;10.096;2023-10-08T05:17:43;25.40;;;4.30;;
73550;SDS011;61816;53.582;10.096;2023-10-08T05:20:19;23.95;;;2.55;;
73550;SDS011;61816;53.582;10.096;2023-10-08T05:23:16;12.68;;;2.10;;
73550;SDS011;61816;53.582;10.096;2023-10-08T05:25:53;14.65;;;2.60;;
73550;SDS011;61816;53.582;10.096;2023-10-08T05:28:27;14.15;;;2.20;;
73550;SDS011;61816;53.582;10.096;2023-10-08T05:30:55;11.65;;;2.00;;
73550;SDS011;61816;53.582;10.096;2023-10-08T05:33:39;10.82;;;2.83;;
73550;SDS011;61816;53.582;10.096;2023-10-08T05:36:25;15.38;;;2.55;;
73550;SDS011;61816;53.582;10.096;2023-10-08T05:39:00;9.85;;;1.92;;
73550;SDS011;61816;53.582;10.096;2023-10-08T05:41:29;13.27;;;2.67;;
73550;SDS011;61816;53.582;10.096;2023-10-08T05:44:07;9.85;;;3.00;;
73550;SDS011;61816;53.582;10.096;2023-10-08T05:46:39;11.52;;;2.05;;
73550;SDS011;61816;53.582;10.096;2023-10-08T05:49:14;7.30;;;2.00;;
73550;SDS011;61816;53.582;10.096;2023-10-08T05:51:40;14.70;;;2.25;;
73550;SDS011;61816;53.582;10.096;2023-10-08T05:54:20;7.85;;;2.20;;
73550;SDS011;61816;53.582;10.096;2023-10-08T05:57:04;11.23;;;2.38;;
73550;SDS011;61816;53.582;10.096;2023-10-08T05:59:36;10.25;;;2.47;;
73550;SDS011;61816;53.582;10.096;2023-10-08T06:02:24;13.27;;;3.42;;
73550;SDS011;61816;53.582;10.096;2023-10-08T06:04:54;17.10;;;2.83;;
73550;SDS011;61816;53.582;10.096;2023-10-08T06:10:28;15.60;;;2.55;;
73550;SDS011;61816;53.582;10.096;2023-10-08T06:12:55;17.75;;;2.53;;
73550;SDS011;61816;53.582;10.096;2023-10-08T06:15:49;15.52;;;2.38;;
73550;SDS011;61816;53.582;10.096;2023-10-08T06:18:16;17.60;;;2.13;;
73550;SDS011;61816;53.582;10.096;2023-10-08T06:20:44;15.25;;;2.40;;
73550;SDS011;61816;53.582;10.096;2023-10-08T06:23:14;17.70;;;3.13;;
73550;SDS011;61816;53.582;10.096;2023-10-08T06:25:49;20.55;;;2.88;;
73550;SDS011;61816;53.582;10.096;2023-10-08T06:28:30;11.52;;;3.40;;
73550;SDS011;61816;53.582;10.096;2023-10-08T06:31:00;26.02;;;2.80;;
73550;SDS011;61816;53.582;10.096;2023-10-08T06:33:26;16.75;;;2.45;;
73550;SDS011;61816;53.582;10.096;2023-10-08T06:35:58;13.05;;;2.17;;
73550;SDS011;61816;53.582;10.096;2023-10-08T06:38:37;26.27;;;5.32;;
73550;SDS011;61816;53.582;10.096;2023-10-08T06:41:03;17.15;;;2.35;;
73550;SDS011;61816;53.582;10.096;2023-10-08T06:43:42;12.02;;;2.05;;
73550;SDS011;61816;53.582;10.096;2023-10-08T06:46:30;22.27;;;2.95;;
73550;SDS011;61816;53.582;10.096;2023-10-08T06:48:59;15.63;;;3.22;;
73550;SDS011;61816;53.582;10.096;2023-10-08T06:51:25;20.92;;;3.42;;
73550;SDS011;61816;53.582;10.096;2023-10-08T06:53:51;25.50;;;8.93;;
73550;SDS011;61816;53.582;10.096;2023-10-08T06:56:17;26.08;;;3.38;;
73550;SDS011;61816;53.582;10.096;2023-10-08T06:58:44;15.35;;;2.60;;
73550;SDS011;61816;53.582;10.096;2023-10-08T07:01:17;17.85;;;3.45;;
73550;SDS011;61816;53.582;10.096;2023-10-08T07:03:49;12.50;;;2.92;;
73550;SDS011;61816;53.582;10.096;2023-10-08T07:06:16;18.58;;;3.22;;
73550;SDS011;61816;53.582;10.096;2023-10-08T07:08:57;11.40;;;2.60;;
73550;SDS011;61816;53.582;10.096;2023-10-08T07:11:25;13.25;;;2.90;;
73550;SDS011;61816;53.582;10.096;2023-10-08T07:13:54;11.65;;;2.25;;
73550;SDS011;61816;53.582;10.096;2023-10-08T07:16:20;10.23;;;2.30;;
73550;SDS011;61816;53.582;10.096;2023-10-08T07:18:46;22.13;;;2.95;;
73550;SDS011;61816;53.582;10.096;2023-10-08T07:21:17;9.75;;;1.98;;
73550;SDS011;61816;53.582;10.096;2023-10-08T07:23:44;10.35;;;2.38;;
73550;SDS011;61816;53.582;10.096;2023-10-08T07:26:33;13.88;;;1.80;;
73550;SDS011;61816;53.582;10.096;2023-10-08T07:29:26;7.00;;;2.00;;
73550;SDS011;61816;53.582;10.096;2023-10-08T07:31:52;9.63;;;2.05;;
73550;SDS011;61816;53.582;10.096;2023-10-08T07:34:20;14.82;;;3.17;;
73550;SDS011;61816;53.582;10.096;2023-10-08T07:36:49;6.38;;;1.80;;
73550;SDS011;61816;53.582;10.096;2023-10-08T07:39:16;11.65;;;2.05;;
73550;SDS011;61816;53.582;10.096;2023-10-08T07:42:05;12.30;;;2.25;;
73550;SDS011;61816;53.582;10.096;2023-10-08T07:44:31;11.73;;;2.42;;
73550;SDS011;61816;53.582;10.096;2023-10-08T07:46:57;5.03;;;1.58;;
73550;SDS011;61816;53.582;10.096;2023-10-08T07:49:23;7.78;;;2.67;;
73550;SDS011;61816;53.582;10.096;2023-10-08T07:51:50;22.23;;;2.72;;
73550;SDS011;61816;53.582;10.096;2023-10-08T07:54:20;10.63;;;2.40;;
73550;SDS011;61816;53.582;10.096;2023-10-08T07:56:48;8.07;;;2.20;;
73550;SDS011;61816;53.582;10.096;2023-10-08T07:59:41;14.93;;;2.03;;
73550;SDS011;61816;53.582;10.096;2023-10-08T08:02:11;10.63;;;1.92;;
73550;SDS011;61816;53.582;10.096;2023-10-08T08:04:41;8.93;;;1.90;;
73550;SDS011;61816;53.582;10.096;2023-10-08T08:07:16;17.05;;;7.35;;
73550;SDS011;61816;53.582;10.096;2023-10-08T08:09:42;8.82;;;2.00;;
73550;SDS011;61816;53.582;10.096;2023-10-08T08:14:38;9.18;;;1.90;;
73550;SDS011;61816;53.582;10.096;2023-10-08T08:17:06;9.55;;;2.13;;
73550;SDS011;61816;53.582;10.096;2023-10-08T08:19:39;9.10;;;1.80;;
73550;SDS011;61816;53.582;10.096;2023-10-08T08:22:09;9.52;;;2.40;;
73550;SDS011;61816;53.582;10.096;2023-10-08T08:24:41;6.70;;;1.92;;
73550;SDS011;61816;53.582;10.096;2023-10-08T08:27:10;10.13;;;2.33;;
73550;SDS011;61816;53.582;10.096;2023-10-08T08:29:44;8.50;;;1.77;;
73550;SDS011;61816;53.582;10.096;2023-10-08T08:32:10;7.63;;;2.13;;
73550;SDS011;61816;53.582;10.096;2023-10-08T08:34:43;9.00;;;2.42;;
73550;SDS011;61816;53.582;10.096;2023-10-08T08:37:12;7.13;;;1.85;;
73550;SDS011;61816;53.582;10.096;2023-10-08T08:39:38;8.88;;;2.03;;
73550;SDS011;61816;53.582;10.096;2023-10-08T08:42:04;15.00;;;2.28;;
73550;SDS011;61816;53.582;10.096;2023-10-08T08:44:30;8.00;;;1.45;;
73550;SDS011;61816;53.582;10.096;2023-10-08T08:46:57;11.63;;;1.33;;
73550;SDS011;61816;53.582;10.096;2023-10-08T08:49:29;8.27;;;2.10;;
73550;SDS011;61816;53.582;10.096;2023-10-08T08:52:04;11.52;;;2.03;;
73550;SDS011;61816;53.582;10.096;2023-10-08T08:54:30;8.63;;;2.40;;
73550;SDS011;61816;53.582;10.096;2023-10-08T08:56:59;7.10;;;2.35;;
73550;SDS011;61816;53.582;10.096;2023-10-08T08:59:29;9.23;;;1.77;;
73550;SDS011;61816;53.582;10.096;2023-10-08T09:01:56;9.38;;;1.52;;
73550;SDS011;61816;53.582;10.096;2023-10-08T09:04:29;8.95;;;1.80;;
73550;SDS011;61816;53.582;10.096;2023-10-08T09:06:56;7.30;;;2.35;;
73550;SDS011;61816;53.582;10.096;2023-10-08T09:09:22;11.50;;;2.00;;
73550;SDS011;61816;53.582;10.096;2023-10-08T09:11:51;5.00;;;1.48;;
73550;SDS011;61816;53.582;10.096;2023-10-08T09:14:21;16.20;;;2.10;;
73550;SDS011;61816;53.582;10.096;2023-10-08T09:16:52;20.17;;;2.38;;
73550;SDS011;61816;53.582;10.096;2023-10-08T09:19:19;5.25;;;1.73;;
73550;SDS011;61816;53.582;10.096;2023-10-08T09:22:00;8.45;;;1.58;;
73550;SDS011;61816;53.582;10.096;2023-10-08T09:24:26;12.30;;;1.55;;
73550;SDS011;61816;53.582;10.096;2023-10-08T09:26:52;8.93;;;2.05;;
73550;SDS011;61816;53.582;10.096;2023-10-08T09:29:17;10.00;;;1.85;;
73550;SDS011;61816;53.582;10.096;2023-10-08T09:31:52;8.93;;;1.80;;
73550;SDS011;61816;53.582;10.096;2023-10-08T09:34:28;7.53;;;1.60;;
73550;SDS011;61816;53.582;10.096;2023-10-08T09:36:55;4.47;;;1.10;;
73550;SDS011;61816;53.582;10.096;2023-10-08T09:39:21;7.85;;;1.60;;
73550;SDS011;61816;53.582;10.096;2023-10-08T09:42:01;5.18;;;1.40;;
73550;SDS011;61816;53.582;10.096;2023-10-08T09:44:37;7.53;;;1.38;;
73550;SDS011;61816;53.582;10.096;2023-10-08T09:47:06;3.15;;;1.30;;
73550;SDS011;61816;53.582;10.096;2023-10-08T09:52:03;8.13;;;1.65;;
73550;SDS011;61816;53.582;10.096;2023-10-08T09:54:36;5.63;;;1.42;;
73550;SDS011;61816;53.582;10.096;2023-10-08T09:57:08;7.32;;;2.10;;
73550;SDS011;61816;53.582;10.096;2023-10-08T09:59:35;8.25;;;2.50;;
73550;SDS011;61816;53.582;10.096;2023-10-08T10:02:03;4.93;;;1.45;;
73550;SDS011;61816;53.582;10.096;2023-10-08T10:04:30;9.00;;;1.77;;
73550;SDS011;61816;53.582;10.096;2023-10-08T10:06:57;5.70;;;2.38;;
73550;SDS011;61816;53.582;10.096;2023-10-08T10:09:25;6.97;;;1.90;;
73550;SDS011;61816;53.582;10.096;2023-10-08T10:11:51;6.90;;;1.63;;
73550;SDS011;61816;53.582;10.096;2023-10-08T10:14:22;4.65;;;1.40;;
73550;SDS011;61816;53.582;10.096;2023-10-08T10:16:53;5.30;;;1.48;;
73550;SDS011;61816;53.582;10.096;2023-10-08T10:19:57;5.47;;;1.40;;
73550;SDS011;61816;53.582;10.096;2023-10-08T10:22:31;8.02;;;1.80;;
73550;SDS011;61816;53.582;10.096;2023-10-08T10:24:59;6.20;;;1.73;;
73550;SDS011;61816;53.582;10.096;2023-10-08T10:27:29;13.70;;;1.80;;
73550;SDS011;61816;53.582;10.096;2023-10-08T10:30:02;6.90;;;2.33;;
73550;SDS011;61816;53.582;10.096;2023-10-08T10:32:37;4.70;;;1.73;;
73550;SDS011;61816;53.582;10.096;2023-10-08T10:35:03;6.47;;;3.10;;
73550;SDS011;61816;53.582;10.096;2023-10-08T10:37:30;5.32;;;2.67;;
73550;SDS011;61816;53.582;10.096;2023-10-08T10:40:06;6.63;;;2.45;;
73550;SDS011;61816;53.582;10.096;2023-10-08T10:42:37;5.05;;;1.55;;
73550;SDS011;61816;53.582;10.096;2023-10-08T10:45:14;3.75;;;2.20;;
73550;SDS011;61816;53.582;10.096;2023-10-08T10:48:00;8.32;;;3.17;;
73550;SDS011;61816;53.582;10.096;2023-10-08T10:50:47;7.15;;;2.17;;
73550;SDS011;61816;53.582;10.096;2023-10-08T10:53:36;4.65;;;2.10;;
73550;SDS011;61816;53.582;10.096;2023-10-08T10:56:22;5.95;;;1.92;;
73550;SDS011;61816;53.582;10.096;2023-10-08T10:59:03;9.60;;;2.38;;
73550;SDS011;61816;53.582;10.096;2023-10-08T11:01:52;8.18;;;2.78;;
73550;SDS011;61816;53.582;10.096;2023-10-08T11:04:19;5.85;;;1.73;;
73550;SDS011;61816;53.582;10.096;2023-10-08T11:06:54;7.53;;;3.25;;
73550;SDS011;61816;53.582;10.096;2023-10-08T11:09:24;7.25;;;1.98;;
73550;SDS011;61816;53.582;10.096;2023-10-08T11:12:03;8.93;;;1.60;;
73550;SDS011;61816;53.582;10.096;2023-10-08T11:14:39;14.48;;;1.75;;
73550;SDS011;61816;53.582;10.096;2023-10-08T11:17:13;2.75;;;1.58;;
73550;SDS011;61816;53.582;10.096;2023-10-08T11:19:42;3.08;;;1.33;;
73550;SDS011;61816;53.582;10.096;2023-10-08T11:22:11;7.28;;;1.60;;
73550;SDS011;61816;53.582;10.096;2023-10-08T11:24:41;5.68;;;1.40;;
73550;SDS011;61816;53.582;10.096;2023-10-08T11:27:09;5.70;;;1.90;;
73550;SDS011;61816;53.582;10.096;2023-10-08T11:29:42;6.22;;;1.63;;
73550;SDS011;61816;53.582;10.096;2023-10-08T11:32:09;6.40;;;2.00;;
73550;SDS011;61816;53.582;10.096;2023-10-08T11:34:38;7.05;;;1.40;;
73550;SDS011;61816;53.582;10.096;2023-10-08T11:37:04;5.60;;;1.50;;
73550;SDS011;61816;53.582;10.096;2023-10-08T11:39:45;7.72;;;1.75;;
73550;SDS011;61816;53.582;10.096;2023-10-08T11:42:11;4.55;;;2.15;;
73550;SDS011;61816;53.582;10.096;2023-10-08T11:44:55;8.25;;;1.38;;
73550;SDS011;61816;53.582;10.096;2023-10-08T11:47:24;6.00;;;1.70;;
73550;SDS011;61816;53.582;10.096;2023-10-08T11:49:56;5.15;;;2.00;;
73550;SDS011;61816;53.582;10.096;2023-10-08T11:52:35;6.60;;;1.70;;
73550;SDS011;61816;53.582;10.096;2023-10-08T11:55:10;11.52;;;2.33;;
73550;SDS011;61816;53.582;10.096;2023-10-08T11:57:48;5.88;;;1.67;;
73550;SDS011;61816;53.582;10.096;2023-10-08T12:00:15;3.92;;;1.27;;
73550;SDS011;61816;53.582;10.096;2023-10-08T12:02:47;5.25;;;1.35;;
73550;SDS011;61816;53.582;10.096;2023-10-08T12:05:13;4.55;;;1.50;;
73550;SDS011;61816;53.582;10.096;2023-10-08T12:07:48;6.70;;;1.30;;
73550;SDS011;61816;53.582;10.096;2023-10-08T12:10:18;5.85;;;1.38;;
73550;SDS011;61816;53.582;10.096;2023-10-08T12:12:53;4.40;;;1.30;;
73550;SDS011;61816;53.582;10.096;2023-10-08T12:15:25;4.65;;;1.40;;
73550;SDS011;61816;53.582;10.096;2023-10-08T12:17:59;5.07;;;1.27;;
73550;SDS011;61816;53.582;10.096;2023-10-08T12:20:39;8.02;;;1.55;;
73550;SDS011;61816;53.582;10.096;2023-10-08T12:23:09;3.00;;;1.10;;
73550;SDS011;61816;53.582;10.096;2023-10-08T12:25:58;2.70;;;1.15;;
73550;SDS011;61816;53.582;10.096;2023-10-08T12:28:25;6.00;;;1.77;;
73550;SDS011;61816;53.582;10.096;2023-10-08T12:30:52;6.20;;;1.52;;
73550;SDS011;61816;53.582;10.096;2023-10-08T12:33:21;9.35;;;1.77;;
73550;SDS011;61816;53.582;10.096;2023-10-08T12:35:49;5.55;;;1.63;;
73550;SDS011;61816;53.582;10.096;2023-10-08T12:38:21;2.78;;;1.23;;
73550;SDS011;61816;53.582;10.096;2023-10-08T12:40:53;8.85;;;2.10;;
73550;SDS011;61816;53.582;10.096;2023-10-08T12:43:23;4.72;;;2.03;;
73550;SDS011;61816;53.582;10.096;2023-10-08T12:45:52;5.00;;;2.72;;
73550;SDS011;61816;53.582;10.096;2023-10-08T12:48:22;3.40;;;1.65;;
73550;SDS011;61816;53.582;10.096;2023-10-08T12:50:49;6.13;;;1.33;;
73550;SDS011;61816;53.582;10.096;2023-10-08T12:53:26;5.30;;;1.38;;
73550;SDS011;61816;53.582;10.096;2023-10-08T12:55:58;2.80;;;1.40;;
73550;SDS011;61816;53.582;10.096;2023-10-08T12:58:30;3.88;;;1.70;;
73550;SDS011;61816;53.582;10.096;2023-10-08T13:00:59;5.10;;;1.50;;
73550;SDS011;61816;53.582;10.096;2023-10-08T13:03:29;2.10;;;1.13;;
73550;SDS011;61816;53.582;10.096;2023-10-08T13:05:58;2.33;;;1.05;;
73550;SDS011;61816;53.582;10.096;2023-10-08T13:08:30;6.53;;;1.58;;
73550;SDS011;61816;53.582;10.096;2023-10-08T13:11:08;5.03;;;1.42;;
73550;SDS011;61816;53.582;10.096;2023-10-08T13:13:39;9.10;;;2.22;;
73550;SDS011;61816;53.582;10.096;2023-10-08T13:16:04;3.65;;;1.88;;
73550;SDS011;61816;53.582;10.096;2023-10-08T13:18:33;4.90;;;1.30;;
73550;SDS011;61816;53.582;10.096;2023-10-08T13:21:02;4.97;;;1.48;;
73550;SDS011;61816;53.582;10.096;2023-10-08T13:23:28;5.13;;;1.88;;
73550;SDS011;61816;53.582;10.096;2023-10-08T13:25:54;7.45;;;1.50;;
73550;SDS011;61816;53.582;10.096;2023-10-08T13:28:21;6.65;;;1.63;;
73550;SDS011;61816;53.582;10.096;2023-10-08T13:30:47;3.30;;;1.63;;
73550;SDS011;61816;53.582;10.096;2023-10-08T13:33:18;10.77;;;1.75;;
73550;SDS011;61816;53.582;10.096;2023-10-08T13:35:44;2.95;;;1.70;;
73550;SDS011;61816;53.582;10.096;2023-10-08T13:38:10;4.07;;;1.50;;
73550;SDS011;61816;53.582;10.096;2023-10-08T13:40:38;5.20;;;1.42;;
73550;SDS011;61816;53.582;10.096;2023-10-08T13:43:08;7.18;;;1.60;;
73550;SDS011;61816;53.582;10.096;2023-10-08T13:45:36;2.83;;;1.60;;
73550;SDS011;61816;53.582;10.096;2023-10-08T13:48:04;3.97;;;1.42;;
73550;SDS011;61816;53.582;10.096;2023-10-08T13:50:30;9.55;;;2.00;;
73550;SDS011;61816;53.582;10.096;2023-10-08T13:52:56;7.35;;;1.50;;
73550;SDS011;61816;53.582;10.096;2023-10-08T13:55:23;4.82;;;1.60;;
73550;SDS011;61816;53.582;10.096;2023-10-08T13:57:50;5.38;;;1.60;;
73550;SDS011;61816;53.582;10.096;2023-10-08T14:00:16;4.03;;;1.48;;
73550;SDS011;61816;53.582;10.096;2023-10-08T14:02:50;5.60;;;1.70;;
73550;SDS011;61816;53.582;10.096;2023-10-08T14:05:17;4.63;;;1.83;;
73550;SDS011;61816;53.582;10.096;2023-10-08T14:07:43;3.90;;;1.70;;
73550;SDS011;61816;53.582;10.096;2023-10-08T14:10:11;4.90;;;1.58;;
73550;SDS011;61816;53.582;10.096;2023-10-08T14:12:44;4.57;;;1.75;;
73550;SDS011;61816;53.582;10.096;2023-10-08T14:15:14;8.50;;;1.93;;
73550;SDS011;61816;53.582;10.096;2023-10-08T14:17:41;4.32;;;1.67;;
73550;SDS011;61816;53.582;10.096;2023-10-08T14:20:09;4.32;;;1.60;;
73550;SDS011;61816;53.582;10.096;2023-10-08T14:22:38;5.13;;;1.60;;
73550;SDS011;61816;53.582;10.096;2023-10-08T14:25:06;5.13;;;2.10;;
73550;SDS011;61816;53.582;10.096;2023-10-08T14:27:37;10.35;;;2.33;;
73550;SDS011;61816;53.582;10.096;2023-10-08T14:30:08;3.45;;;1.88;;
73550;SDS011;61816;53.582;10.096;2023-10-08T14:32:40;6.43;;;1.63;;
73550;SDS011;61816;53.582;10.096;2023-10-08T14:35:12;5.88;;;2.20;;
73550;SDS011;61816;53.582;10.096;2023-10-08T14:37:56;6.57;;;1.63;;
73550;SDS011;61816;53.582;10.096;2023-10-08T14:40:40;5.10;;;1.77;;
73550;SDS011;61816;53.582;10.096;2023-10-08T14:43:24;11.50;;;2.75;;
73550;SDS011;61816;53.582;10.096;2023-10-08T14:45:50;6.15;;;1.98;;
73550;SDS011;61816;53.582;10.096;2023-10-08T14:48:17;5.43;;;1.85;;
73550;SDS011;61816;53.582;10.096;2023-10-08T14:50:43;5.20;;;1.63;;
73550;SDS011;61816;53.582;10.096;2023-10-08T14:53:09;11.43;;;2.58;;
73550;SDS011;61816;53.582;10.096;2023-10-08T14:55:37;5.57;;;1.92;;
73550;SDS011;61816;53.582;10.096;2023-10-08T14:58:04;12.90;;;2.45;;
73550;SDS011;61816;53.582;10.096;2023-10-08T15:00:34;7.72;;;2.35;;
73550;SDS011;61816;53.582;10.096;2023-10-08T15:03:03;4.38;;;1.92;;
73550;SDS011;61816;53.582;10.096;2023-10-08T15:05:29;9.23;;;3.53;;
73550;SDS011;61816;53.582;10.096;2023-10-08T15:07:55;15.35;;;8.23;;
73550;SDS011;61816;53.582;10.096;2023-10-08T15:10:21;5.88;;;2.55;;